sensor_id;sensor_type;location;lat;lon;timestamp;P1;durP1;ratioP1;P2;durP2;ratioP2
33108;SDS011;19481;51.118;6.940;2023-03-01T00:04:28;8.02;;;5.72;;
33108;SDS011;19481;51.118;6.940;2023-03-01T00:09:29;8.27;;;5.35;;
33108;SDS011;19481;51.118;6.940;2023-03-01T00:14:32;10.10;;;5.70;;
33108;SDS011;19481;51.118;6.940;2023-03-01T00:19:34;8.95;;;5.05;;
33108;SDS011;19481;51.118;6.940;2023-03-01T00:24:36;8.88;;;5.25;;
33108;SDS011;19481;51.118;6.940;2023-03-01T00:29:39;10.57;;;5.60;;
33108;SDS011;19481;51.118;6.940;2023-03-01T00:34:40;8.07;;;4.85;;
33108;SDS011;19481;51.118;6.940;2023-03-01T00:39:42;7.97;;;5.40;;
33108;SDS011;19481;51.118;6.940;2023-03-01T00:44:45;10.05;;;5.35;;
33108;SDS011;19481;51.118;6.940;2023-03-01T00:49:46;11.00;;;5.43;;
33108;SDS011;19481;51.118;6.940;2023-03-01T00:54:51;7.70;;;5.60;;
33108;SDS011;19481;51.118;6.940;2023-03-01T00:59:54;7.32;;;4.90;;
33108;SDS011;19481;51.118;6.940;2023-03-01T01:04:56;10.57;;;5.28;;
33108;SDS011;19481;51.118;6.940;2023-03-01T01:09:58;7.95;;;5.75;;
33108;SDS011;19481;51.118;6.940;2023-03-01T01:15:01;10.13;;;5.10;;
33108;SDS011;19481;51.118;6.940;2023-03-01T01:20:03;11.05;;;5.20;;
33108;SDS011;19481;51.118;6.940;2023-03-01T01:25:05;5.82;;;4.35;;
33108;SDS011;19481;51.118;6.940;2023-03-01T01:30:09;7.53;;;4.75;;
33108;SDS011;19481;51.118;6.940;2023-03-01T01:35:12;8.30;;;5.35;;
33108;SDS011;19481;51.118;6.940;2023-03-01T01:40:13;7.13;;;5.10;;
33108;SDS011;19481;51.118;6.940;2023-03-01T01:45:25;7.88;;;4.65;;
33108;SDS011;19481;51.118;6.940;2023-03-01T01:50:29;7.43;;;4.90;;
33108;SDS011;19481;51.118;6.940;2023-03-01T01:55:39;6.15;;;4.72;;
33108;SDS011;19481;51.118;6.940;2023-03-01T02:00:45;7.32;;;5.22;;
33108;SDS011;19481;51.118;6.940;2023-03-01T02:05:50;9.50;;;4.97;;
33108;SDS011;19481;51.118;6.940;2023-03-01T02:10:56;12.95;;;5.78;;
33108;SDS011;19481;51.118;6.940;2023-03-01T02:16:03;6.72;;;5.13;;
33108;SDS011;19481;51.118;6.940;2023-03-01T02:21:08;5.95;;;4.90;;
33108;SDS011;19481;51.118;6.940;2023-03-01T02:26:20;7.30;;;5.60;;
33108;SDS011;19481;51.118;6.940;2023-03-01T02:31:32;7.38;;;5.35;;
33108;SDS011;19481;51.118;6.940;2023-03-01T02:36:44;9.40;;;5.18;;
33108;SDS011;19481;51.118;6.940;2023-03-01T02:41:50;7.75;;;5.18;;
33108;SDS011;19481;51.118;6.940;2023-03-01T02:46:55;6.25;;;4.78;;
33108;SDS011;19481;51.118;6.940;2023-03-01T02:52:01;5.47;;;4.80;;
33108;SDS011;19481;51.118;6.940;2023-03-01T02:57:13;7.55;;;5.32;;
33108;SDS011;19481;51.118;6.940;2023-03-01T03:02:20;6.82;;;5.25;;
33108;SDS011;19481;51.118;6.940;2023-03-01T03:07:36;10.35;;;5.15;;
33108;SDS011;19481;51.118;6.940;2023-03-01T03:12:39;8.27;;;5.80;;
33108;SDS011;19481;51.118;6.940;2023-03-01T03:17:42;9.90;;;5.22;;
33108;SDS011;19481;51.118;6.940;2023-03-01T03:22:45;7.45;;;4.60;;
33108;SDS011;19481;51.118;6.940;2023-03-01T03:27:48;8.25;;;5.45;;
33108;SDS011;19481;51.118;6.940;2023-03-01T03:32:58;6.85;;;5.20;;
33108;SDS011;19481;51.118;6.940;2023-03-01T03:38:01;10.88;;;5.13;;
33108;SDS011;19481;51.118;6.940;2023-03-01T03:43:07;6.55;;;4.97;;
33108;SDS011;19481;51.118;6.940;2023-03-01T03:48:12;5.60;;;5.00;;
33108;SDS011;19481;51.118;6.940;2023-03-01T03:53:14;6.50;;;4.97;;
33108;SDS011;19481;51.118;6.940;2023-03-01T03:58:16;9.82;;;4.75;;
33108;SDS011;19481;51.118;6.940;2023-03-01T04:03:21;9.45;;;5.47;;
33108;SDS011;19481;51.118;6.940;2023-03-01T04:08:23;10.50;;;5.57;;
33108;SDS011;19481;51.118;6.940;2023-03-01T04:13:25;6.22;;;5.07;;
33108;SDS011;19481;51.118;6.940;2023-03-01T04:18:28;7.40;;;5.05;;
33108;SDS011;19481;51.118;6.940;2023-03-01T04:23:30;8.38;;;5.72;;
33108;SDS011;19481;51.118;6.940;2023-03-01T04:28:33;7.97;;;5.97;;
33108;SDS011;19481;51.118;6.940;2023-03-01T04:33:37;7.32;;;5.32;;
33108;SDS011;19481;51.118;6.940;2023-03-01T04:38:39;8.55;;;5.65;;
33108;SDS011;19481;51.118;6.940;2023-03-01T04:43:41;7.28;;;5.20;;
33108;SDS011;19481;51.118;6.940;2023-03-01T04:48:44;9.50;;;5.78;;
33108;SDS011;19481;51.118;6.940;2023-03-01T04:53:47;7.63;;;5.53;;
33108;SDS011;19481;51.118;6.940;2023-03-01T04:58:48;9.38;;;5.80;;
33108;SDS011;19481;51.118;6.940;2023-03-01T05:03:52;7.50;;;5.28;;
33108;SDS011;19481;51.118;6.940;2023-03-01T05:08:54;6.75;;;4.85;;
33108;SDS011;19481;51.118;6.940;2023-03-01T05:13:56;10.07;;;5.53;;
33108;SDS011;19481;51.118;6.940;2023-03-01T05:18:59;10.65;;;6.00;;
33108;SDS011;19481;51.118;6.940;2023-03-01T05:24:01;6.13;;;4.82;;
33108;SDS011;19481;51.118;6.940;2023-03-01T05:29:03;8.60;;;5.45;;
33108;SDS011;19481;51.118;6.940;2023-03-01T05:34:06;8.00;;;5.43;;
33108;SDS011;19481;51.118;6.940;2023-03-01T05:39:07;10.93;;;5.78;;
33108;SDS011;19481;51.118;6.940;2023-03-01T05:44:10;7.15;;;6.20;;
33108;SDS011;19481;51.118;6.940;2023-03-01T05:49:13;12.77;;;6.65;;
33108;SDS011;19481;51.118;6.940;2023-03-01T05:54:15;9.50;;;6.28;;
33108;SDS011;19481;51.118;6.940;2023-03-01T05:59:17;7.78;;;5.95;;
33108;SDS011;19481;51.118;6.940;2023-03-01T06:04:20;8.75;;;5.72;;
33108;SDS011;19481;51.118;6.940;2023-03-01T06:09:21;10.95;;;5.72;;
33108;SDS011;19481;51.118;6.940;2023-03-01T06:14:23;10.45;;;6.13;;
33108;SDS011;19481;51.118;6.940;2023-03-01T06:19:26;10.55;;;6.55;;
33108;SDS011;19481;51.118;6.940;2023-03-01T06:24:28;13.30;;;6.10;;
33108;SDS011;19481;51.118;6.940;2023-03-01T06:29:29;14.90;;;6.05;;
33108;SDS011;19481;51.118;6.940;2023-03-01T06:34:32;11.10;;;6.18;;
33108;SDS011;19481;51.118;6.940;2023-03-01T06:39:34;7.57;;;5.43;;
33108;SDS011;19481;51.118;6.940;2023-03-01T06:44:36;12.32;;;6.97;;
33108;SDS011;19481;51.118;6.940;2023-03-01T06:49:39;13.30;;;6.55;;
33108;SDS011;19481;51.118;6.940;2023-03-01T06:54:40;13.63;;;7.05;;
33108;SDS011;19481;51.118;6.940;2023-03-01T06:59:42;7.18;;;6.20;;
33108;SDS011;19481;51.118;6.940;2023-03-01T07:04:45;9.55;;;6.25;;
33108;SDS011;19481;51.118;6.940;2023-03-01T07:09:48;12.82;;;7.15;;
33108;SDS011;19481;51.118;6.940;2023-03-01T07:14:49;8.45;;;5.90;;
33108;SDS011;19481;51.118;6.940;2023-03-01T07:19:52;8.90;;;6.32;;
33108;SDS011;19481;51.118;6.940;2023-03-01T07:24:54;22.15;;;8.10;;
33108;SDS011;19481;51.118;6.940;2023-03-01T07:29:56;11.25;;;7.50;;
33108;SDS011;19481;51.118;6.940;2023-03-01T07:34:59;10.38;;;6.10;;
33108;SDS011;19481;51.118;6.940;2023-03-01T07:40:00;11.20;;;5.85;;
33108;SDS011;19481;51.118;6.940;2023-03-01T07:45:02;12.27;;;7.00;;
33108;SDS011;19481;51.118;6.940;2023-03-01T07:50:07;13.07;;;7.32;;
33108;SDS011;19481;51.118;6.940;2023-03-01T07:55:09;12.90;;;6.65;;
33108;SDS011;19481;51.118;6.940;2023-03-01T08:00:11;8.85;;;5.85;;
33108;SDS011;19481;51.118;6.940;2023-03-01T08:05:15;9.85;;;5.97;;
33108;SDS011;19481;51.118;6.940;2023-03-01T08:10:17;8.82;;;6.07;;
33108;SDS011;19481;51.118;6.940;2023-03-01T08:15:19;8.85;;;6.03;;
33108;SDS011;19481;51.118;6.940;2023-03-01T08:20:22;9.23;;;6.32;;
33108;SDS011;19481;51.118;6.940;2023-03-01T08:25:24;8.45;;;6.18;;
33108;SDS011;19481;51.118;6.940;2023-03-01T08:30:26;8.52;;;5.85;;
33108;SDS011;19481;51.118;6.940;2023-03-01T08:35:29;8.02;;;5.95;;
33108;SDS011;19481;51.118;6.940;2023-03-01T08:40:30;8.40;;;6.15;;
33108;SDS011;19481;51.118;6.940;2023-03-01T08:45:32;10.20;;;5.70;;
33108;SDS011;19481;51.118;6.940;2023-03-01T08:50:35;8.77;;;5.82;;
33108;SDS011;19481;51.118;6.940;2023-03-01T08:55:37;7.30;;;5.55;;
33108;SDS011;19481;51.118;6.940;2023-03-01T09:00:39;8.25;;;5.80;;
33108;SDS011;19481;51.118;6.940;2023-03-01T09:05:42;8.45;;;5.97;;
33108;SDS011;19481;51.118;6.940;2023-03-01T09:10:45;7.95;;;5.75;;
33108;SDS011;19481;51.118;6.940;2023-03-01T09:15:47;7.15;;;4.95;;
33108;SDS011;19481;51.118;6.940;2023-03-01T09:20:50;7.82;;;4.68;;
33108;SDS011;19481;51.118;6.940;2023-03-01T09:25:52;8.13;;;4.57;;
33108;SDS011;19481;51.118;6.940;2023-03-01T09:30:53;6.65;;;4.25;;
33108;SDS011;19481;51.118;6.940;2023-03-01T09:36:01;8.15;;;5.60;;
33108;SDS011;19481;51.118;6.940;2023-03-01T09:41:08;6.45;;;4.97;;
33108;SDS011;19481;51.118;6.940;2023-03-01T09:46:12;10.77;;;6.13;;
33108;SDS011;19481;51.118;6.940;2023-03-01T09:51:18;9.35;;;5.85;;
33108;SDS011;19481;51.118;6.940;2023-03-01T10:01:32;8.30;;;5.18;;
33108;SDS011;19481;51.118;6.940;2023-03-01T10:06:37;9.32;;;5.88;;
33108;SDS011;19481;51.118;6.940;2023-03-01T10:11:45;7.28;;;5.40;;
33108;SDS011;19481;51.118;6.940;2023-03-01T10:16:51;7.03;;;5.45;;
33108;SDS011;19481;51.118;6.940;2023-03-01T10:22:00;8.38;;;4.93;;
33108;SDS011;19481;51.118;6.940;2023-03-01T10:27:05;5.87;;;4.40;;
33108;SDS011;19481;51.118;6.940;2023-03-01T10:32:12;6.30;;;5.03;;
33108;SDS011;19481;51.118;6.940;2023-03-01T10:37:16;7.28;;;5.25;;
33108;SDS011;19481;51.118;6.940;2023-03-01T10:42:25;6.70;;;4.90;;
33108;SDS011;19481;51.118;6.940;2023-03-01T10:47:28;6.13;;;5.07;;
33108;SDS011;19481;51.118;6.940;2023-03-01T10:52:33;8.32;;;4.97;;
33108;SDS011;19481;51.118;6.940;2023-03-01T10:57:36;7.72;;;5.25;;
33108;SDS011;19481;51.118;6.940;2023-03-01T11:02:40;5.80;;;4.18;;
33108;SDS011;19481;51.118;6.940;2023-03-01T11:07:48;7.57;;;4.85;;
33108;SDS011;19481;51.118;6.940;2023-03-01T11:12:51;8.98;;;5.32;;
33108;SDS011;19481;51.118;6.940;2023-03-01T11:17:54;8.25;;;5.38;;
33108;SDS011;19481;51.118;6.940;2023-03-01T11:22:59;6.82;;;5.18;;
33108;SDS011;19481;51.118;6.940;2023-03-01T11:33:11;8.65;;;5.25;;
33108;SDS011;19481;51.118;6.940;2023-03-01T11:38:21;7.43;;;5.00;;
33108;SDS011;19481;51.118;6.940;2023-03-01T11:43:26;6.28;;;4.50;;
33108;SDS011;19481;51.118;6.940;2023-03-01T11:48:41;7.20;;;5.43;;
33108;SDS011;19481;51.118;6.940;2023-03-01T11:53:53;7.28;;;5.03;;
33108;SDS011;19481;51.118;6.940;2023-03-01T11:59:17;7.28;;;4.78;;
33108;SDS011;19481;51.118;6.940;2023-03-01T12:10:19;7.03;;;4.97;;
33108;SDS011;19481;51.118;6.940;2023-03-01T12:15:30;10.30;;;5.60;;
33108;SDS011;19481;51.118;6.940;2023-03-01T12:21:09;6.57;;;4.50;;
33108;SDS011;19481;51.118;6.940;2023-03-01T12:26:23;6.13;;;4.95;;
33108;SDS011;19481;51.118;6.940;2023-03-01T12:31:36;6.45;;;4.55;;
33108;SDS011;19481;51.118;6.940;2023-03-01T12:36:59;6.13;;;4.78;;
33108;SDS011;19481;51.118;6.940;2023-03-01T12:42:20;6.43;;;5.05;;
33108;SDS011;19481;51.118;6.940;2023-03-01T12:47:45;8.30;;;5.45;;
33108;SDS011;19481;51.118;6.940;2023-03-01T12:52:58;13.05;;;5.43;;
33108;SDS011;19481;51.118;6.940;2023-03-01T12:58:04;6.80;;;4.95;;
33108;SDS011;19481;51.118;6.940;2023-03-01T13:03:17;6.15;;;4.80;;
33108;SDS011;19481;51.118;6.940;2023-03-01T13:08:27;7.88;;;5.20;;
33108;SDS011;19481;51.118;6.940;2023-03-01T13:13:34;7.95;;;4.85;;
33108;SDS011;19481;51.118;6.940;2023-03-01T13:18:35;6.50;;;4.93;;
33108;SDS011;19481;51.118;6.940;2023-03-01T13:23:37;7.78;;;4.85;;
33108;SDS011;19481;51.118;6.940;2023-03-01T13:28:48;7.57;;;4.78;;
33108;SDS011;19481;51.118;6.940;2023-03-01T13:33:52;7.68;;;4.90;;
33108;SDS011;19481;51.118;6.940;2023-03-01T13:38:55;6.72;;;4.32;;
33108;SDS011;19481;51.118;6.940;2023-03-01T13:43:59;5.35;;;4.30;;
33108;SDS011;19481;51.118;6.940;2023-03-01T13:49:01;7.22;;;4.55;;
33108;SDS011;19481;51.118;6.940;2023-03-01T13:54:03;5.97;;;4.45;;
33108;SDS011;19481;51.118;6.940;2023-03-01T13:59:12;6.93;;;4.22;;
33108;SDS011;19481;51.118;6.940;2023-03-01T14:04:20;6.70;;;4.18;;
33108;SDS011;19481;51.118;6.940;2023-03-01T14:09:23;10.32;;;4.50;;
33108;SDS011;19481;51.118;6.940;2023-03-01T14:14:43;6.03;;;4.50;;
33108;SDS011;19481;51.118;6.940;2023-03-01T14:19:56;8.05;;;4.78;;
33108;SDS011;19481;51.118;6.940;2023-03-01T14:25:00;5.53;;;4.38;;
33108;SDS011;19481;51.118;6.940;2023-03-01T14:30:10;4.75;;;3.75;;
33108;SDS011;19481;51.118;6.940;2023-03-01T14:35:20;6.28;;;4.68;;
33108;SDS011;19481;51.118;6.940;2023-03-01T14:40:24;5.85;;;4.82;;
33108;SDS011;19481;51.118;6.940;2023-03-01T14:45:30;6.53;;;4.10;;
33108;SDS011;19481;51.118;6.940;2023-03-01T14:50:32;6.57;;;4.10;;
33108;SDS011;19481;51.118;6.940;2023-03-01T14:55:36;8.80;;;4.57;;
33108;SDS011;19481;51.118;6.940;2023-03-01T15:00:43;6.35;;;4.32;;
33108;SDS011;19481;51.118;6.940;2023-03-01T15:05:50;9.18;;;4.30;;
33108;SDS011;19481;51.118;6.940;2023-03-01T15:10:57;5.80;;;4.00;;
33108;SDS011;19481;51.118;6.940;2023-03-01T15:16:08;7.07;;;4.35;;
33108;SDS011;19481;51.118;6.940;2023-03-01T15:26:21;3.97;;;3.22;;
33108;SDS011;19481;51.118;6.940;2023-03-01T15:31:27;9.02;;;3.97;;
33108;SDS011;19481;51.118;6.940;2023-03-01T15:36:33;5.03;;;3.80;;
33108;SDS011;19481;51.118;6.940;2023-03-01T15:41:46;5.18;;;3.78;;
33108;SDS011;19481;51.118;6.940;2023-03-01T15:46:50;5.93;;;4.13;;
33108;SDS011;19481;51.118;6.940;2023-03-01T15:51:51;5.95;;;3.47;;
33108;SDS011;19481;51.118;6.940;2023-03-01T15:56:55;6.43;;;3.63;;
33108;SDS011;19481;51.118;6.940;2023-03-01T16:01:59;4.85;;;3.55;;
33108;SDS011;19481;51.118;6.940;2023-03-01T16:07:01;6.05;;;4.00;;
33108;SDS011;19481;51.118;6.940;2023-03-01T16:12:02;6.25;;;3.75;;
33108;SDS011;19481;51.118;6.940;2023-03-01T16:17:06;6.60;;;3.83;;
33108;SDS011;19481;51.118;6.940;2023-03-01T16:22:10;4.78;;;3.65;;
33108;SDS011;19481;51.118;6.940;2023-03-01T16:27:11;5.82;;;3.22;;
33108;SDS011;19481;51.118;6.940;2023-03-01T16:32:16;6.53;;;3.90;;
33108;SDS011;19481;51.118;6.940;2023-03-01T16:37:18;5.78;;;3.90;;
33108;SDS011;19481;51.118;6.940;2023-03-01T16:42:21;6.50;;;3.80;;
33108;SDS011;19481;51.118;6.940;2023-03-01T16:47:24;5.22;;;3.47;;
33108;SDS011;19481;51.118;6.940;2023-03-01T16:52:25;6.35;;;3.95;;
33108;SDS011;19481;51.118;6.940;2023-03-01T16:57:27;6.57;;;4.13;;
33108;SDS011;19481;51.118;6.940;2023-03-01T17:02:30;7.20;;;3.72;;
33108;SDS011;19481;51.118;6.940;2023-03-01T17:07:32;5.40;;;4.35;;
33108;SDS011;19481;51.118;6.940;2023-03-01T17:12:34;7.65;;;4.30;;
33108;SDS011;19481;51.118;6.940;2023-03-01T17:17:38;4.80;;;3.42;;
33108;SDS011;19481;51.118;6.940;2023-03-01T17:22:39;6.93;;;4.38;;
33108;SDS011;19481;51.118;6.940;2023-03-01T17:27:41;5.57;;;4.07;;
33108;SDS011;19481;51.118;6.940;2023-03-01T17:32:44;4.65;;;3.55;;
33108;SDS011;19481;51.118;6.940;2023-03-01T17:37:46;7.20;;;3.85;;
33108;SDS011;19481;51.118;6.940;2023-03-01T17:42:47;7.22;;;4.22;;
33108;SDS011;19481;51.118;6.940;2023-03-01T17:47:50;6.20;;;3.70;;
33108;SDS011;19481;51.118;6.940;2023-03-01T17:52:52;6.68;;;4.13;;
33108;SDS011;19481;51.118;6.940;2023-03-01T17:57:54;5.90;;;4.07;;
33108;SDS011;19481;51.118;6.940;2023-03-01T18:02:57;7.20;;;3.85;;
33108;SDS011;19481;51.118;6.940;2023-03-01T18:07:59;6.35;;;3.47;;
33108;SDS011;19481;51.118;6.940;2023-03-01T18:13:00;8.43;;;4.22;;
33108;SDS011;19481;51.118;6.940;2023-03-01T18:18:03;5.35;;;3.90;;
33108;SDS011;19481;51.118;6.940;2023-03-01T18:23:05;6.90;;;3.95;;
33108;SDS011;19481;51.118;6.940;2023-03-01T18:28:07;6.00;;;3.83;;
33108;SDS011;19481;51.118;6.940;2023-03-01T18:33:10;5.53;;;3.78;;
33108;SDS011;19481;51.118;6.940;2023-03-01T18:38:11;9.23;;;4.05;;
33108;SDS011;19481;51.118;6.940;2023-03-01T18:43:13;7.97;;;4.05;;
33108;SDS011;19481;51.118;6.940;2023-03-01T18:48:16;5.18;;;3.97;;
33108;SDS011;19481;51.118;6.940;2023-03-01T18:53:18;6.47;;;4.18;;
33108;SDS011;19481;51.118;6.940;2023-03-01T18:58:19;7.28;;;4.40;;
33108;SDS011;19481;51.118;6.940;2023-03-01T19:03:22;7.63;;;4.70;;
33108;SDS011;19481;51.118;6.940;2023-03-01T19:08:24;7.47;;;4.25;;
33108;SDS011;19481;51.118;6.940;2023-03-01T19:13:26;6.30;;;4.05;;
33108;SDS011;19481;51.118;6.940;2023-03-01T19:18:29;7.57;;;4.13;;
33108;SDS011;19481;51.118;6.940;2023-03-01T19:23:31;6.78;;;4.50;;
33108;SDS011;19481;51.118;6.940;2023-03-01T19:28:34;9.10;;;5.00;;
33108;SDS011;19481;51.118;6.940;2023-03-01T19:33:37;9.57;;;5.45;;
33108;SDS011;19481;51.118;6.940;2023-03-01T19:38:40;14.43;;;6.47;;
33108;SDS011;19481;51.118;6.940;2023-03-01T19:43:43;8.23;;;4.90;;
33108;SDS011;19481;51.118;6.940;2023-03-01T19:48:47;11.55;;;5.35;;
33108;SDS011;19481;51.118;6.940;2023-03-01T19:53:48;12.75;;;4.60;;
33108;SDS011;19481;51.118;6.940;2023-03-01T19:58:50;6.32;;;4.88;;
33108;SDS011;19481;51.118;6.940;2023-03-01T20:04:00;5.72;;;4.40;;
33108;SDS011;19481;51.118;6.940;2023-03-01T20:09:03;6.88;;;4.03;;
33108;SDS011;19481;51.118;6.940;2023-03-01T20:14:05;11.80;;;4.60;;
33108;SDS011;19481;51.118;6.940;2023-03-01T20:19:11;11.15;;;5.20;;
33108;SDS011;19481;51.118;6.940;2023-03-01T20:24:12;7.47;;;4.78;;
33108;SDS011;19481;51.118;6.940;2023-03-01T20:29:14;13.30;;;5.13;;
33108;SDS011;19481;51.118;6.940;2023-03-01T20:34:17;8.15;;;4.70;;
33108;SDS011;19481;51.118;6.940;2023-03-01T20:39:19;8.55;;;4.53;;
33108;SDS011;19481;51.118;6.940;2023-03-01T20:44:21;7.93;;;4.47;;
33108;SDS011;19481;51.118;6.940;2023-03-01T20:49:24;6.30;;;4.20;;
33108;SDS011;19481;51.118;6.940;2023-03-01T20:54:26;5.97;;;4.55;;
33108;SDS011;19481;51.118;6.940;2023-03-01T20:59:27;7.22;;;4.45;;
33108;SDS011;19481;51.118;6.940;2023-03-01T21:04:30;9.13;;;4.80;;
33108;SDS011;19481;51.118;6.940;2023-03-01T21:09:32;6.97;;;4.65;;
33108;SDS011;19481;51.118;6.940;2023-03-01T21:14:34;5.40;;;4.00;;
33108;SDS011;19481;51.118;6.940;2023-03-01T21:19:43;9.97;;;4.23;;
33108;SDS011;19481;51.118;6.940;2023-03-01T21:24:45;6.85;;;4.32;;
33108;SDS011;19481;51.118;6.940;2023-03-01T21:29:47;7.35;;;4.68;;
33108;SDS011;19481;51.118;6.940;2023-03-01T21:34:51;8.27;;;4.93;;
33108;SDS011;19481;51.118;6.940;2023-03-01T21:39:52;6.85;;;4.32;;
33108;SDS011;19481;51.118;6.940;2023-03-01T21:44:54;6.38;;;4.28;;
33108;SDS011;19481;51.118;6.940;2023-03-01T21:49:57;7.80;;;4.78;;
33108;SDS011;19481;51.118;6.940;2023-03-01T21:54:59;7.90;;;4.82;;
33108;SDS011;19481;51.118;6.940;2023-03-01T22:00:02;10.55;;;4.93;;
33108;SDS011;19481;51.118;6.940;2023-03-01T22:05:08;8.40;;;5.38;;
33108;SDS011;19481;51.118;6.940;2023-03-01T22:10:10;8.20;;;4.70;;
33108;SDS011;19481;51.118;6.940;2023-03-01T22:15:11;10.95;;;4.90;;
33108;SDS011;19481;51.118;6.940;2023-03-01T22:20:15;11.00;;;5.25;;
33108;SDS011;19481;51.118;6.940;2023-03-01T22:25:17;8.95;;;4.68;;
33108;SDS011;19481;51.118;6.940;2023-03-01T22:30:18;7.60;;;4.90;;
33108;SDS011;19481;51.118;6.940;2023-03-01T22:35:21;9.40;;;5.28;;
33108;SDS011;19481;51.118;6.940;2023-03-01T22:40:23;6.82;;;4.88;;
33108;SDS011;19481;51.118;6.940;2023-03-01T22:45:26;8.50;;;5.20;;
33108;SDS011;19481;51.118;6.940;2023-03-01T22:50:30;10.13;;;4.90;;
33108;SDS011;19481;51.118;6.940;2023-03-01T22:55:31;8.77;;;5.28;;
33108;SDS011;19481;51.118;6.940;2023-03-01T23:00:33;11.48;;;4.70;;
33108;SDS011;19481;51.118;6.940;2023-03-01T23:05:36;7.35;;;5.00;;
33108;SDS011;19481;51.118;6.940;2023-03-01T23:10:38;5.95;;;4.55;;
33108;SDS011;19481;51.118;6.940;2023-03-01T23:15:41;10.27;;;5.40;;
33108;SDS011;19481;51.118;6.940;2023-03-01T23:20:45;8.30;;;5.43;;
33108;SDS011;19481;51.118;6.940;2023-03-01T23:25:53;7.82;;;4.68;;
33108;SDS011;19481;51.118;6.940;2023-03-01T23:30:56;8.02;;;5.18;;
33108;SDS011;19481;51.118;6.940;2023-03-01T23:36:00;15.15;;;5.50;;
33108;SDS011;19481;51.118;6.940;2023-03-01T23:41:02;8.85;;;5.40;;
33108;SDS011;19481;51.118;6.940;2023-03-01T23:46:03;6.82;;;5.32;;
33108;SDS011;19481;51.118;6.940;2023-03-01T23:51:07;8.60;;;5.10;;
33108;SDS011;19481;51.118;6.940;2023-03-01T23:56:09;11.00;;;5.60;;
